METAR Data
IDs: Format: Raw Decoded Include TAF

Data at: 1851 UTC 25 Mar 2019

KDTO 251753Z 01014KT 10SM CLR 19/09 A3024 RMK AO2 SLP235 T01890089 10194 20100 50011
KDTO 251653Z 02010KT 10SM CLR 18/09 A3024 RMK AO2 SLP237 T01780094
KDTO 251553Z 01012KT 10SM CLR 17/09 A3023 RMK AO2 SLP233 T01670089
KDTO 251453Z 01011KT 10SM CLR 15/09 A3021 RMK AO2 SLP225 T01500089 53026
KDTO 251353Z 01010KT 10SM CLR 13/09 A3017 RMK AO2 SLP213 T01280089
KDTO 251253Z 35005KT 10SM CLR 10/08 A3015 RMK AO2 SLP205 T01000078
KDTO 251153Z 36005KT 10SM CLR 10/08 A3013 RMK AO2 SLP198 70017 T01000078 10161 20100 51028
KDTO 251053Z 35007KT 10SM CLR 11/08 A3011 RMK AO2 SLP192 T01110083
KDTO 250953Z AUTO 35010KT 10SM CLR 12/09 A3008 RMK AO2 SLP180 T01220089
KDTO 250853Z AUTO 35008KT 10SM CLR 12/09 A3005 RMK AO2 SLP168 T01220094 55000
KDTO 250753Z AUTO 36008KT 10SM CLR 13/09 A3004 RMK AO2 SLP165 T01330094
KDTO 250653Z AUTO 01008KT 10SM FEW070 14/10 A3005 RMK AO2 SLP168 T01440100
KDTO 250553Z AUTO 35013KT 10SM CLR 16/11 A3005 RMK AO2 LTG DSNT S RAE02 SLP168 P0000 60016 T01610111 10244 20161 402830150 53016
KDTO 250453Z AUTO 01011KT 10SM -RA OVC060 17/13 A3003 RMK AO2 LTG DSNT E RAE29B48 SLP162 P0016 T01670128
KDTO 250433Z AUTO 34012KT 10SM FEW029 OVC060 17/13 A3003 RMK AO2 LTG DSNT NE-SE RAE29 P0015 T01670128
KDTO 250405Z AUTO 32010KT 3SM VCTS +RA FEW035 BKN055 BKN110 17/12 A3002 RMK AO2 LTG DSNT NW-E P0012 T01720122
KDTO 250353Z AUTO 31008KT 10SM -RA SCT060 SCT110 18/12 A3001 RMK AO2 LTG DSNT ALQDS RAB53 SLP154 P0000 T01830122
KDTO 250253Z AUTO 01005KT 10SM BKN060 19/12 A3000 RMK AO2 LTG DSNT S AND SW SLP153 T01940117 53029
KDTO 250153Z 02005KT 10SM BKN070 BKN095 BKN120 21/17 A2997 RMK AO2 SLP143 T02060167
KDTO 250100Z 03005KT 10SM SCT070 21/16 A2994 RMK AO2 LTG DSNT E-S T02110161
KDTO 250053Z 36006KT 10SM VCTS FEW075 23/15 A2994 RMK AO2 LTG DSNT E-S TSE00B06E21 SLP131 T02280150
KDTO 250045Z 34006KT 10SM VCTS SCT075 23/16 A2993 RMK AO2 LTG DSNT E-S TSE00B06E21 T02280156
KDTO 250027Z 30011G16KT 10SM SCT070 BKN080 24/14 A2992 RMK AO2 LTG DSNT ALQDS TSE00B06E21 T02390144
KDTO 242353Z 00000KT 10SM TS BKN065 OVC085 23/18 A2991 RMK AO2 LTG DSNT E TSE06B51 SLP123 60001 T02330178 10283 20206 56011
KDTO 242351Z 03003KT 10SM TS BKN065 BKN085 23/18 A2991 RMK AO2 LTG DSNT E TSE06B51
KDTO 242321Z 00000KT 10SM FEW070 25/17 A2991 RMK AO2 LTG DSNT E TSE06 T02500167
KDTO 242312Z 00000KT 10SM VCTS SCT070 SCT090 24/17 A2991 RMK AO2 LTG DSNT NE AND E TSE06 T02440167
KDTO 242253Z 04003KT 10SM TS BKN060 BKN075 OVC095 23/16 A2991 RMK AO2 PK WND 31027/2232 LTG DSNT NE AND E RAE47 TSB10 SLP124 P0001 T02330156
KDTO 242216Z 19007KT 10SM -TSRA FEW060 BKN085 OVC110 27/16 A2991 RMK AO2 TSB10 P0000 T02670156
KDTO 242153Z 21010KT 10SM -RA SCT060 SCT095 BKN120 28/16 A2992 RMK AO2 LTG DSNT NE RAB52 SLP125 P0000 T02780156
KDTO 242053Z 21007G15KT 10SM SCT050 BKN065 27/16 A2994 RMK AO2 SLP132 T02720156 56022
KDTO 241953Z 21010G19KT 10SM FEW047 27/16 A2996 RMK AO2 SLP138 T02720156
KDTO 241853Z 20009KT 10SM SCT039 26/17 A2999 RMK AO2 SLP147 T02610167
KDTO 241753Z 22010G18KT 10SM BKN034 25/17 A3001 RMK AO2 SLP155 T02500167 10250 20150 58009
KDTO 241653Z 20015KT 10SM FEW020 23/17 A3003 RMK AO2 SLP163 T02280167
KDTO 241642Z 20012KT 10SM SCT020 22/17 A3003 RMK AO2 T02220167
KDTO 241553Z 20013G18KT 10SM BKN021 OVC025 21/17 A3005 RMK AO2 SLP168 T02110167
KDTO 241530Z 20012G18KT 10SM BKN017 21/16 A3005 RMK AO2 T02060161
KDTO 241453Z 19014KT 10SM CLR 19/16 A3004 RMK AO2 SLP166 T01890161 53012
KDTO 241353Z 18011KT 10SM CLR 17/16 A3002 RMK AO2 SLP161 T01720156
KDTO 241253Z 16009KT 10SM CLR 16/14 A3001 RMK AO2 SLP156 T01560139
KDTO 241153Z 16008KT 10SM CLR 15/14 A3000 RMK AO2 SLP154 70009 T01500139 10183 20150 53003
KDTO 241053Z 15008KT 10SM CLR 16/14 A3000 RMK AO2 SLP153 T01560139
KDTO 240953Z AUTO 16009KT 10SM CLR 16/14 A2999 RMK AO2 SLP148 T01610139
KDTO 240853Z AUTO 15009KT 10SM FEW034 17/14 A2999 RMK AO2 SLP151 T01670139 58006
KDTO 240753Z AUTO 18012KT 10SM SCT025 BKN034 18/14 A3000 RMK AO2 SLP154 T01780144
KDTO 240653Z AUTO 17012KT 10SM BKN027 OVC032 18/14 A3001 RMK AO2 SLP157 T01830144